createdAt,value
2019-03-03T00:01:54.642Z,104.03
2019-03-03T00:04:24.784Z,113.57
2019-03-03T00:06:54.283Z,99.43
2019-03-03T00:09:23.747Z,102.67
2019-03-03T00:11:52.942Z,102.17
2019-03-03T00:14:23.323Z,104.17
2019-03-03T00:16:53.215Z,103.07
2019-03-03T00:19:23.020Z,111.70
2019-03-03T00:21:52.496Z,111.07
2019-03-03T00:24:22.722Z,105.03
2019-03-03T00:26:52.260Z,100.47
2019-03-03T00:29:21.727Z,95.33
2019-03-03T00:31:51.178Z,121.40
2019-03-03T00:34:20.984Z,99.17
2019-03-03T00:37:15.026Z,105.23
2019-03-03T00:40:09.310Z,108.27
2019-03-03T00:42:43.781Z,100.50
2019-03-03T00:45:32.615Z,106.17
2019-03-03T00:48:11.576Z,103.40
2019-03-03T00:51:00.589Z,102.87
2019-03-03T00:53:42.795Z,106.73
2019-03-03T00:56:24.077Z,95.00
2019-03-03T00:59:09.564Z,103.50
2019-03-03T01:01:44.496Z,96.93
2019-03-03T01:04:26.034Z,98.87
2019-03-03T01:07:10.873Z,111.70
2019-03-03T01:09:50.905Z,99.80
2019-03-03T01:12:35.845Z,105.50
2019-03-03T01:15:31.588Z,101.37
2019-03-03T01:18:08.281Z,93.50
2019-03-03T01:20:52.043Z,98.03
2019-03-03T01:23:48.842Z,92.90
2019-03-03T01:26:18.396Z,94.87
2019-03-03T01:28:47.972Z,89.67
2019-03-03T01:31:17.805Z,92.70
2019-03-03T01:33:47.323Z,90.47
2019-03-03T01:36:16.741Z,86.53
2019-03-03T01:38:46.550Z,88.93
2019-03-03T01:41:15.711Z,85.40
2019-03-03T01:43:45.124Z,93.77
2019-03-03T01:46:14.619Z,88.23
2019-03-03T01:48:44.788Z,84.33
2019-03-03T01:51:14.704Z,81.43
2019-03-03T01:53:44.128Z,86.53
2019-03-03T01:56:13.244Z,79.67
2019-03-03T01:58:42.756Z,75.93
2019-03-03T02:01:12.542Z,69.37
2019-03-03T02:03:41.984Z,76.87
2019-03-03T02:06:11.480Z,70.73
2019-03-03T02:08:40.975Z,76.57
2019-03-03T02:11:11.093Z,66.30
2019-03-03T02:13:40.183Z,69.93
2019-03-03T02:16:09.804Z,70.70
2019-03-03T02:18:39.247Z,61.43
2019-03-03T02:21:08.721Z,60.50
2019-03-03T02:23:37.860Z,62.23
2019-03-03T02:26:07.950Z,66.77
2019-03-03T02:28:37.759Z,60.63
2019-03-03T02:31:07.522Z,61.00
2019-03-03T02:33:36.896Z,54.90
2019-03-03T02:36:06.037Z,56.57
2019-03-03T02:38:35.481Z,55.37
2019-03-03T02:41:05.293Z,48.83
2019-03-03T02:43:39.767Z,57.70
2019-03-03T02:46:10.269Z,54.23
2019-03-03T02:48:39.775Z,57.93
2019-03-03T02:51:08.913Z,63.00
2019-03-03T02:53:38.786Z,58.70
2019-03-03T02:56:08.600Z,60.73
2019-03-03T02:58:38.428Z,54.77
2019-03-03T03:01:33.044Z,66.33
2019-03-03T03:04:02.479Z,52.93
2019-03-03T03:06:54.524Z,53.93
2019-03-03T03:09:27.236Z,51.77
2019-03-03T03:12:11.527Z,51.90
2019-03-03T03:14:59.182Z,54.37
2019-03-03T03:17:56.431Z,48.90
2019-03-03T03:20:54.029Z,51.57
2019-03-03T03:23:34.145Z,50.73
2019-03-03T03:26:27.105Z,51.67
2019-03-03T03:29:27.938Z,54.23
2019-03-03T03:32:16.490Z,52.23
2019-03-03T03:34:50.958Z,53.13
2019-03-03T03:37:29.911Z,48.13
2019-03-03T03:40:27.232Z,53.77
2019-03-03T03:43:12.803Z,46.63
2019-03-03T03:46:07.590Z,50.60
2019-03-03T03:48:56.034Z,45.17
2019-03-03T03:51:46.966Z,48.23
2019-03-03T03:54:53.916Z,49.37
2019-03-03T03:57:48.956Z,50.53
2019-03-03T04:00:37.316Z,48.00
2019-03-03T04:03:25.669Z,49.30
2019-03-03T04:06:15.894Z,44.90
2019-03-03T04:08:51.394Z,43.83
2019-03-03T04:11:52.231Z,44.77
2019-03-03T04:14:32.146Z,51.37
2019-03-03T04:17:29.744Z,42.13
2019-03-03T04:20:27.154Z,42.13
2019-03-03T04:23:23.068Z,42.83
2019-03-03T04:26:09.981Z,43.20
2019-03-03T04:28:52.994Z,41.73
2019-03-03T04:31:31.581Z,38.03
2019-03-03T04:34:11.889Z,38.50
2019-03-03T04:36:53.552Z,40.63
2019-03-03T04:39:33.466Z,43.27
2019-03-03T04:42:30.373Z,44.63
2019-03-03T04:45:09.794Z,44.80
2019-03-03T04:47:56.805Z,48.57
2019-03-03T04:50:45.688Z,50.83
2019-03-03T04:53:21.545Z,45.77
2019-03-03T04:55:57.664Z,47.50
2019-03-03T04:59:04.004Z,47.43
2019-03-03T05:01:50.796Z,53.03
2019-03-03T05:04:27.888Z,50.60
2019-03-03T05:07:07.108Z,48.60
2019-03-03T05:09:42.882Z,43.67
2019-03-03T05:12:49.382Z,47.13
2019-03-03T05:15:53.923Z,46.60
2019-03-03T05:18:44.917Z,49.67
2019-03-03T05:21:14.025Z,47.20
2019-03-03T05:23:43.836Z,47.03
2019-03-03T05:26:13.593Z,46.67
2019-03-03T05:28:43.471Z,48.30
2019-03-03T05:31:12.585Z,49.83
2019-03-03T05:33:42.121Z,51.90
2019-03-03T05:36:12.247Z,49.50
2019-03-03T05:38:42.512Z,45.00
2019-03-03T05:41:12.390Z,43.23
2019-03-03T05:43:42.271Z,44.03
2019-03-03T05:46:12.124Z,45.40
2019-03-03T05:48:41.892Z,42.17
2019-03-03T05:51:11.344Z,41.17
2019-03-03T05:53:40.763Z,46.57
2019-03-03T05:56:10.265Z,44.53
2019-03-03T05:58:39.705Z,52.53
2019-03-03T06:01:09.478Z,53.27
2019-03-03T06:03:39.489Z,56.67
2019-03-03T06:06:08.988Z,57.77
2019-03-03T06:08:38.485Z,60.43
2019-03-03T06:11:07.628Z,55.33
2019-03-03T06:13:37.379Z,58.40
2019-03-03T06:16:06.597Z,57.40
2019-03-03T06:18:36.423Z,61.60
2019-03-03T06:21:05.829Z,53.30
2019-03-03T06:23:35.615Z,55.37
2019-03-03T06:26:05.142Z,50.83
2019-03-03T06:28:34.210Z,59.40
2019-03-03T06:31:03.725Z,55.97
2019-03-03T06:33:33.313Z,57.80
2019-03-03T06:36:03.104Z,63.87
2019-03-03T06:38:32.596Z,57.33
2019-03-03T06:41:02.536Z,61.97
2019-03-03T06:43:32.045Z,58.30
2019-03-03T06:46:01.584Z,60.93
2019-03-03T06:48:31.463Z,52.40
2019-03-03T06:51:00.551Z,57.57
2019-03-03T06:53:30.051Z,61.10
2019-03-03T06:55:59.140Z,61.63
2019-03-03T06:58:28.242Z,56.67
2019-03-03T07:00:58.071Z,62.27
2019-03-03T07:03:28.208Z,64.60
2019-03-03T07:05:58.024Z,61.43
2019-03-03T07:08:27.507Z,64.93
2019-03-03T07:10:57.979Z,61.07
2019-03-03T07:13:27.458Z,56.77
2019-03-03T07:15:57.965Z,55.83
2019-03-03T07:18:27.812Z,55.07
2019-03-03T07:20:58.156Z,56.30
2019-03-03T07:23:28.042Z,49.73
2019-03-03T07:25:57.433Z,53.23
2019-03-03T07:28:27.262Z,50.07
2019-03-03T07:30:57.104Z,47.50
2019-03-03T07:33:30.004Z,46.70
2019-03-03T07:35:59.852Z,47.03
2019-03-03T07:38:29.630Z,45.17
2019-03-03T07:40:59.112Z,47.30
2019-03-03T07:43:28.291Z,47.10
2019-03-03T07:45:58.041Z,46.53
2019-03-03T07:48:27.764Z,46.17
2019-03-03T07:50:56.944Z,45.93
2019-03-03T07:53:26.109Z,44.27
2019-03-03T07:55:55.336Z,44.17
2019-03-03T07:58:24.736Z,44.20
2019-03-03T08:00:54.251Z,60.67
2019-03-03T08:03:24.380Z,47.57
2019-03-03T08:05:53.807Z,44.93
2019-03-03T08:08:23.291Z,43.90
2019-03-03T08:10:52.895Z,47.87
2019-03-03T08:13:22.753Z,52.93
2019-03-03T08:15:51.942Z,54.70
2019-03-03T08:18:21.816Z,80.47
2019-03-03T08:20:51.281Z,79.83
2019-03-03T08:23:20.791Z,107.10
2019-03-03T08:25:50.686Z,121.17
2019-03-03T08:28:20.210Z,71.97
2019-03-03T08:30:49.720Z,74.47
2019-03-03T08:33:19.251Z,58.57
2019-03-03T08:35:48.647Z,56.30
2019-03-03T08:38:18.586Z,45.23
2019-03-03T08:40:48.076Z,46.73
2019-03-03T08:43:39.002Z,61.17
2019-03-03T08:46:36.830Z,57.47
2019-03-03T08:49:20.307Z,45.70
2019-03-03T08:52:15.407Z,51.53
2019-03-03T08:55:09.307Z,45.57
2019-03-03T08:58:13.251Z,39.43
2019-03-03T09:00:49.962Z,39.53
2019-03-03T09:03:30.081Z,42.67
2019-03-03T09:06:21.507Z,37.97
2019-03-03T09:08:57.205Z,36.40
2019-03-03T09:11:41.556Z,41.17
2019-03-03T09:14:35.611Z,35.13
2019-03-03T09:17:13.340Z,37.03
2019-03-03T09:20:00.335Z,37.83
2019-03-03T09:22:39.129Z,38.93
2019-03-03T09:25:28.309Z,34.03
2019-03-03T09:28:19.719Z,37.37
2019-03-03T09:31:06.867Z,36.17
2019-03-03T09:34:01.160Z,33.63
2019-03-03T09:36:49.220Z,35.60
2019-03-03T09:39:36.338Z,33.17
2019-03-03T09:42:33.410Z,34.10
2019-03-03T09:45:20.509Z,30.37
2019-03-03T09:48:08.641Z,32.00
2019-03-03T09:51:15.410Z,31.13
2019-03-03T09:54:09.331Z,34.07
2019-03-03T09:57:00.680Z,30.90
2019-03-03T09:59:39.459Z,31.13
2019-03-03T10:02:15.839Z,33.67
2019-03-03T10:04:51.751Z,28.80
2019-03-03T10:07:55.622Z,35.13
2019-03-03T10:10:44.580Z,36.47
2019-03-03T10:13:20.819Z,37.27
2019-03-03T10:16:02.590Z,31.73
2019-03-03T10:18:39.716Z,31.03
2019-03-03T10:21:17.844Z,34.33
2019-03-03T10:24:05.449Z,33.00
2019-03-03T10:26:47.692Z,33.63
2019-03-03T10:29:33.795Z,34.73
2019-03-03T10:32:15.793Z,31.83
2019-03-03T10:35:07.489Z,34.17
2019-03-03T10:38:07.919Z,32.53
2019-03-03T10:40:43.783Z,26.77
2019-03-03T10:43:32.348Z,31.27
2019-03-03T10:46:22.958Z,32.30
2019-03-03T10:48:57.887Z,30.33
2019-03-03T10:51:51.884Z,28.33
2019-03-03T10:54:52.452Z,27.40
2019-03-03T10:57:40.788Z,27.37
2019-03-03T11:00:38.743Z,28.93
2019-03-03T11:03:36.337Z,23.73
2019-03-03T11:06:24.220Z,24.97
2019-03-03T11:09:15.601Z,28.60
2019-03-03T11:11:52.874Z,54.33
2019-03-03T11:14:28.530Z,51.40
2019-03-03T11:17:06.321Z,53.57
2019-03-03T11:20:03.392Z,53.63
2019-03-03T11:22:57.105Z,55.27
2019-03-03T11:25:54.739Z,71.90
2019-03-03T11:28:42.618Z,44.43
2019-03-03T11:31:29.415Z,68.77
2019-03-03T11:34:17.585Z,38.77
2019-03-03T11:36:52.649Z,49.60
2019-03-03T11:39:50.125Z,28.13
2019-03-03T11:42:24.365Z,34.87
2019-03-03T11:45:16.178Z,33.30
2019-03-03T11:48:04.154Z,19.90
2019-03-03T11:50:46.328Z,24.53
2019-03-03T11:53:30.731Z,24.60
2019-03-03T11:56:24.798Z,23.93
2019-03-03T11:59:12.961Z,26.07
2019-03-03T12:02:13.030Z,24.43
2019-03-03T12:05:00.335Z,25.30
2019-03-03T12:07:38.291Z,24.47
2019-03-03T12:10:13.964Z,22.27
2019-03-03T12:13:07.985Z,24.20
2019-03-03T12:15:56.121Z,19.90
2019-03-03T12:18:36.587Z,21.37
2019-03-03T12:21:31.159Z,19.00
2019-03-03T12:24:08.017Z,22.33
2019-03-03T12:26:55.311Z,23.40
2019-03-03T12:29:42.794Z,21.40
2019-03-03T12:32:20.785Z,27.27
2019-03-03T12:35:08.027Z,22.53
2019-03-03T12:38:05.032Z,22.33
2019-03-03T12:40:44.401Z,20.33
2019-03-03T12:43:25.312Z,24.77
2019-03-03T12:46:19.032Z,19.30
2019-03-03T12:48:57.681Z,15.73
2019-03-03T12:51:59.057Z,18.00
2019-03-03T12:54:50.558Z,16.37
2019-03-03T12:57:37.100Z,14.30
2019-03-03T13:00:15.971Z,15.00
2019-03-03T13:03:03.626Z,13.43
2019-03-03T13:06:10.890Z,12.67
2019-03-03T13:09:04.883Z,14.23
2019-03-03T13:11:59.548Z,14.40
2019-03-03T13:14:53.816Z,20.33
2019-03-03T13:17:51.109Z,19.53
2019-03-03T13:20:28.312Z,19.47
2019-03-03T13:23:09.404Z,19.27
2019-03-03T13:25:54.762Z,20.40
2019-03-03T13:28:52.129Z,21.10
2019-03-03T13:31:29.966Z,23.20
2019-03-03T13:34:25.126Z,22.97
2019-03-03T13:37:25.636Z,20.60
2019-03-03T13:40:09.968Z,22.20
2019-03-03T13:42:48.708Z,22.70
2019-03-03T13:45:19.982Z,19.97
2019-03-03T13:47:51.302Z,19.57
2019-03-03T13:50:20.895Z,22.43
2019-03-03T13:52:50.116Z,22.40
2019-03-03T13:55:19.768Z,25.23
2019-03-03T13:57:50.015Z,21.07
2019-03-03T14:00:20.936Z,22.17
2019-03-03T14:02:50.597Z,22.17
2019-03-03T14:05:21.515Z,21.33
2019-03-03T14:07:51.654Z,20.03
2019-03-03T14:10:21.144Z,21.97
2019-03-03T14:12:50.390Z,21.07
2019-03-03T14:15:20.106Z,17.97
2019-03-03T14:17:49.421Z,16.67
2019-03-03T14:20:21.163Z,18.10
2019-03-03T14:22:50.815Z,23.53
2019-03-03T14:25:20.777Z,25.53
2019-03-03T14:27:50.396Z,37.23
2019-03-03T14:30:22.540Z,37.47
2019-03-03T14:32:52.007Z,24.53
2019-03-03T14:35:21.411Z,40.37
2019-03-03T14:37:51.247Z,39.37
2019-03-03T14:40:21.985Z,60.70
2019-03-03T14:42:51.656Z,60.87
2019-03-03T14:45:21.729Z,70.83
2019-03-03T14:47:51.422Z,47.77
2019-03-03T14:50:21.071Z,72.83
2019-03-03T14:52:50.506Z,26.20
2019-03-03T14:55:20.692Z,44.67
2019-03-03T14:57:50.627Z,25.43
2019-03-03T15:00:27.257Z,30.17
2019-03-03T15:02:57.670Z,24.33
2019-03-03T15:05:26.994Z,26.43
2019-03-03T15:07:56.494Z,21.60
2019-03-03T15:10:26.626Z,19.00
2019-03-03T15:12:57.274Z,21.10
2019-03-03T15:15:27.878Z,20.17
2019-03-03T15:17:57.236Z,17.83
2019-03-03T15:20:27.244Z,19.77
2019-03-03T15:22:57.182Z,19.10
2019-03-03T15:25:27.112Z,18.20
2019-03-03T15:27:56.326Z,18.73
2019-03-03T15:30:26.462Z,20.73
2019-03-03T15:32:56.262Z,20.77
2019-03-03T15:35:25.920Z,20.47
2019-03-03T15:37:55.099Z,19.47
2019-03-03T15:40:24.484Z,17.83
2019-03-03T15:42:54.615Z,18.90
2019-03-03T15:45:25.174Z,24.00
2019-03-03T15:47:55.095Z,21.60
2019-03-03T15:50:24.731Z,21.73
2019-03-03T15:52:53.988Z,21.53
2019-03-03T15:55:24.343Z,20.10
2019-03-03T15:57:54.105Z,25.17
2019-03-03T16:00:25.858Z,22.83
2019-03-03T16:02:55.907Z,21.07
2019-03-03T16:05:25.439Z,19.93
2019-03-03T16:07:54.802Z,17.40
2019-03-03T16:10:24.670Z,20.80
2019-03-03T16:12:54.681Z,19.83
2019-03-03T16:15:25.165Z,15.63
2019-03-03T16:17:54.665Z,21.23
2019-03-03T16:20:24.710Z,17.77
2019-03-03T16:22:54.836Z,16.10
2019-03-03T16:25:24.159Z,17.97
2019-03-03T16:27:54.083Z,15.80
2019-03-03T16:30:23.564Z,18.63
2019-03-03T16:32:53.573Z,16.90
2019-03-03T16:35:23.757Z,24.13
2019-03-03T16:37:53.956Z,21.40
2019-03-03T16:40:23.484Z,21.87
2019-03-03T16:42:53.561Z,21.63
2019-03-03T16:45:22.784Z,25.50
2019-03-03T16:47:52.301Z,19.53
2019-03-03T16:50:22.001Z,26.07
2019-03-03T16:52:52.090Z,22.27
2019-03-03T16:55:22.133Z,20.63
2019-03-03T16:57:51.670Z,20.93
2019-03-03T17:00:21.546Z,25.07
2019-03-03T17:02:50.732Z,26.80
2019-03-03T17:05:21.383Z,31.37
2019-03-03T17:07:51.099Z,36.03
2019-03-03T17:10:21.955Z,38.53
2019-03-03T17:12:52.039Z,42.47
2019-03-03T17:15:22.218Z,43.23
2019-03-03T17:17:51.967Z,45.03
2019-03-03T17:20:22.161Z,38.37
2019-03-03T17:22:52.056Z,41.43
2019-03-03T17:25:22.226Z,35.40
2019-03-03T17:27:51.726Z,34.53
2019-03-03T17:30:22.282Z,33.17
2019-03-03T17:32:51.577Z,30.97
2019-03-03T17:35:22.179Z,28.93
2019-03-03T17:37:51.875Z,33.57
2019-03-03T17:40:22.067Z,31.30
2019-03-03T17:42:51.886Z,29.20
2019-03-03T17:45:21.546Z,32.13
2019-03-03T17:47:51.208Z,30.73
2019-03-03T17:50:21.671Z,35.87
2019-03-03T17:52:51.260Z,34.20
2019-03-03T17:55:21.134Z,31.17
2019-03-03T17:57:50.981Z,27.57
2019-03-03T18:00:22.417Z,29.27
2019-03-03T18:02:52.335Z,28.83
2019-03-03T18:05:22.421Z,26.53
2019-03-03T18:07:51.732Z,25.87
2019-03-03T18:10:21.119Z,29.70
2019-03-03T18:12:53.079Z,29.30
2019-03-03T18:15:24.706Z,27.97
2019-03-03T18:17:54.458Z,27.93
2019-03-03T18:20:23.978Z,28.43
2019-03-03T18:22:53.571Z,31.17
2019-03-03T18:25:23.956Z,30.80
2019-03-03T18:27:54.018Z,31.33
2019-03-03T18:30:24.393Z,29.30
2019-03-03T18:32:54.264Z,32.10
2019-03-03T18:35:23.800Z,27.87
2019-03-03T18:37:53.818Z,24.90
2019-03-03T18:40:23.628Z,27.47
2019-03-03T18:42:53.264Z,26.40
2019-03-03T18:45:22.559Z,23.40
2019-03-03T18:47:52.725Z,22.43
2019-03-03T18:50:23.184Z,21.73
2019-03-03T18:52:53.096Z,23.07
2019-03-03T18:55:22.680Z,22.77
2019-03-03T18:57:52.355Z,23.13
2019-03-03T19:00:24.110Z,19.67
2019-03-03T19:02:54.368Z,23.30
2019-03-03T19:05:24.140Z,18.10
2019-03-03T19:07:53.946Z,21.70
2019-03-03T19:10:25.470Z,25.33
2019-03-03T19:12:55.186Z,20.50
2019-03-03T19:15:24.829Z,19.93
2019-03-03T19:17:54.702Z,22.27
2019-03-03T19:20:26.562Z,17.13
2019-03-03T19:22:56.139Z,18.40
2019-03-03T19:25:25.780Z,18.53
2019-03-03T19:27:55.664Z,20.40
2019-03-03T19:30:25.301Z,19.90
2019-03-03T19:33:02.242Z,18.37
2019-03-03T19:35:31.722Z,18.83
2019-03-03T19:38:01.921Z,19.70
2019-03-03T19:40:31.584Z,19.97
2019-03-03T19:43:01.193Z,19.80
2019-03-03T19:45:32.182Z,17.30
2019-03-03T19:48:01.381Z,18.60
2019-03-03T19:50:31.117Z,22.93
2019-03-03T19:53:00.819Z,19.43
2019-03-03T19:55:30.176Z,20.07
2019-03-03T19:57:59.874Z,18.57
2019-03-03T20:00:35.589Z,20.30
2019-03-03T20:03:02.777Z,22.00
2019-03-03T20:05:32.705Z,18.60
2019-03-03T20:08:02.101Z,20.27
2019-03-03T20:10:33.064Z,19.80
2019-03-03T20:13:02.297Z,21.43
2019-03-03T20:15:32.449Z,17.73
2019-03-03T20:18:01.905Z,16.73
2019-03-03T20:20:31.227Z,18.17
2019-03-03T20:23:00.682Z,18.23
2019-03-03T20:25:30.312Z,17.27
2019-03-03T20:27:59.753Z,17.93
2019-03-03T20:30:29.180Z,14.93
2019-03-03T20:32:59.121Z,18.63
2019-03-03T20:35:28.918Z,16.73
2019-03-03T20:37:58.752Z,16.83
2019-03-03T20:40:29.249Z,17.20
2019-03-03T20:42:58.538Z,18.67
2019-03-03T20:45:28.049Z,16.57
2019-03-03T20:47:57.935Z,19.17
2019-03-03T20:50:27.824Z,17.27
2019-03-03T20:52:57.500Z,17.20
2019-03-03T20:55:27.505Z,16.37
2019-03-03T20:57:57.210Z,19.20
2019-03-03T21:00:26.913Z,17.23
2019-03-03T21:02:56.156Z,16.63
2019-03-03T21:05:26.912Z,18.20
2019-03-03T21:07:56.725Z,18.87
2019-03-03T21:10:26.531Z,17.23
2019-03-03T21:12:56.316Z,21.53
2019-03-03T21:15:26.953Z,22.07
2019-03-03T21:17:56.430Z,20.53
2019-03-03T21:20:26.474Z,22.80
2019-03-03T21:22:56.206Z,23.03
2019-03-03T21:25:26.232Z,21.53
2019-03-03T21:27:56.399Z,19.43
2019-03-03T21:30:26.153Z,21.87
2019-03-03T21:32:56.604Z,18.43
2019-03-03T21:35:26.031Z,23.23
2019-03-03T21:37:55.263Z,20.70
2019-03-03T21:40:25.724Z,26.27
2019-03-03T21:42:57.177Z,25.63
2019-03-03T21:45:26.916Z,20.77
2019-03-03T21:47:56.670Z,20.77
2019-03-03T21:50:26.544Z,25.30
2019-03-03T21:52:56.741Z,20.30
2019-03-03T21:55:26.387Z,18.73
2019-03-03T21:57:55.867Z,24.40
2019-03-03T22:00:30.565Z,23.67
2019-03-03T22:03:00.429Z,24.40
2019-03-03T22:05:30.284Z,20.97
2019-03-03T22:07:59.829Z,19.70
2019-03-03T22:10:33.310Z,20.57
2019-03-03T22:13:05.345Z,20.40
2019-03-03T22:15:34.853Z,19.30
2019-03-03T22:18:04.724Z,18.77
2019-03-03T22:20:34.305Z,17.30
2019-03-03T22:23:04.120Z,16.90
2019-03-03T22:25:33.549Z,18.83
2019-03-03T22:28:03.175Z,18.47
2019-03-03T22:30:33.043Z,15.93
2019-03-03T22:33:03.178Z,13.17
2019-03-03T22:35:33.041Z,15.57
2019-03-03T22:38:03.423Z,16.73
2019-03-03T22:40:32.684Z,18.57
2019-03-03T22:43:02.407Z,18.50
2019-03-03T22:45:31.872Z,19.40
2019-03-03T22:48:01.682Z,18.63
2019-03-03T22:50:31.228Z,21.23
2019-03-03T22:53:00.997Z,17.17
2019-03-03T22:55:35.470Z,17.67
2019-03-03T22:58:05.689Z,18.17
2019-03-03T23:00:50.516Z,16.83
2019-03-03T23:03:33.215Z,17.60
2019-03-03T23:06:32.156Z,20.57
2019-03-03T23:09:41.016Z,18.33
2019-03-03T23:13:01.301Z,19.73
2019-03-03T23:16:11.583Z,19.47
2019-03-03T23:19:24.633Z,17.93
2019-03-03T23:22:24.726Z,15.20
2019-03-03T23:25:37.931Z,16.43
2019-03-03T23:28:07.524Z,16.10
2019-03-03T23:30:36.850Z,20.37
2019-03-03T23:33:06.244Z,17.47
2019-03-03T23:35:35.788Z,15.30
2019-03-03T23:38:05.346Z,15.40
2019-03-03T23:40:34.924Z,13.80
2019-03-03T23:43:04.028Z,11.07
2019-03-03T23:45:33.759Z,15.17
2019-03-03T23:48:03.256Z,15.27
2019-03-03T23:50:32.390Z,14.80
2019-03-03T23:53:02.723Z,11.97
2019-03-03T23:55:32.261Z,12.57
2019-03-03T23:58:01.355Z,13.13
